sensor_id;sensor_type;location;lat;lon;timestamp;noise_LAeq;noise_LA_min;noise_LA_max;noise_LA01;noise_LA95
74292;Laerm;62687;55.738;37.516;2023-02-26T00:00:53;69.64;62.07;78.02;;
74292;Laerm;62687;55.738;37.516;2023-02-26T00:03:37;69.32;62.78;76.94;;
74292;Laerm;62687;55.738;37.516;2023-02-26T00:06:22;68.81;62.79;77.43;;
74292;Laerm;62687;55.738;37.516;2023-02-26T00:09:07;68.99;61.74;81.41;;
74292;Laerm;62687;55.738;37.516;2023-02-26T00:11:52;69.64;62.52;76.00;;
74292;Laerm;62687;55.738;37.516;2023-02-26T00:14:37;68.54;60.34;74.54;;
74292;Laerm;62687;55.738;37.516;2023-02-26T00:20:20;69.53;61.44;79.85;;
74292;Laerm;62687;55.738;37.516;2023-02-26T00:23:05;68.96;61.05;74.77;;
74292;Laerm;62687;55.738;37.516;2023-02-26T00:25:49;68.64;61.47;76.90;;
74292;Laerm;62687;55.738;37.516;2023-02-26T00:28:33;69.14;62.96;76.15;;
74292;Laerm;62687;55.738;37.516;2023-02-26T00:31:18;69.07;60.83;76.26;;
74292;Laerm;62687;55.738;37.516;2023-02-26T00:34:11;69.48;60.88;74.56;;
74292;Laerm;62687;55.738;37.516;2023-02-26T00:37:09;69.61;60.87;77.52;;
74292;Laerm;62687;55.738;37.516;2023-02-26T00:40:31;69.46;61.28;80.45;;
74292;Laerm;62687;55.738;37.516;2023-02-26T00:43:20;68.44;59.13;76.37;;
74292;Laerm;62687;55.738;37.516;2023-02-26T00:46:53;68.87;62.35;74.63;;
74292;Laerm;62687;55.738;37.516;2023-02-26T00:55:33;68.75;60.26;76.69;;
74292;Laerm;62687;55.738;37.516;2023-02-26T00:58:17;70.37;60.83;79.85;;
74292;Laerm;62687;55.738;37.516;2023-02-26T01:01:01;68.07;61.49;74.70;;
74292;Laerm;62687;55.738;37.516;2023-02-26T01:03:45;67.83;61.35;74.39;;
74292;Laerm;62687;55.738;37.516;2023-02-26T01:06:32;70.09;63.75;75.78;;
74292;Laerm;62687;55.738;37.516;2023-02-26T01:09:24;69.17;60.10;75.12;;
74292;Laerm;62687;55.738;37.516;2023-02-26T01:12:11;69.40;61.91;75.89;;
74292;Laerm;62687;55.738;37.516;2023-02-26T01:15:00;69.89;60.08;79.27;;
74292;Laerm;62687;55.738;37.516;2023-02-26T01:17:53;68.86;60.12;78.48;;
74292;Laerm;62687;55.738;37.516;2023-02-26T01:20:57;69.01;58.01;77.48;;
74292;Laerm;62687;55.738;37.516;2023-02-26T01:23:49;68.03;59.14;73.85;;
74292;Laerm;62687;55.738;37.516;2023-02-26T01:26:34;70.78;61.18;77.76;;
74292;Laerm;62687;55.738;37.516;2023-02-26T01:29:18;69.75;59.36;77.52;;
74292;Laerm;62687;55.738;37.516;2023-02-26T01:32:30;69.98;61.17;78.69;;
74292;Laerm;62687;55.738;37.516;2023-02-26T01:38:34;69.37;60.70;78.91;;
74292;Laerm;62687;55.738;37.516;2023-02-26T01:41:29;71.67;64.20;84.31;;
74292;Laerm;62687;55.738;37.516;2023-02-26T01:47:15;69.31;62.76;77.48;;
74292;Laerm;62687;55.738;37.516;2023-02-26T01:50:26;70.34;60.02;79.72;;
74292;Laerm;62687;55.738;37.516;2023-02-26T01:53:22;69.69;61.68;81.37;;
74292;Laerm;62687;55.738;37.516;2023-02-26T01:56:18;69.37;61.16;76.51;;
74292;Laerm;62687;55.738;37.516;2023-02-26T01:59:07;69.50;61.51;76.13;;
74292;Laerm;62687;55.738;37.516;2023-02-26T02:01:53;69.65;63.04;76.94;;
74292;Laerm;62687;55.738;37.516;2023-02-26T02:04:39;70.49;64.72;75.72;;
74292;Laerm;62687;55.738;37.516;2023-02-26T02:07:24;69.95;62.05;79.54;;
74292;Laerm;62687;55.738;37.516;2023-02-26T02:10:09;71.01;63.86;77.48;;
74292;Laerm;62687;55.738;37.516;2023-02-26T02:13:06;68.80;61.10;76.46;;
74292;Laerm;62687;55.738;37.516;2023-02-26T02:22:19;69.96;59.62;77.67;;
74292;Laerm;62687;55.738;37.516;2023-02-26T02:25:30;69.29;60.70;77.81;;
74292;Laerm;62687;55.738;37.516;2023-02-26T02:31:16;70.76;60.58;78.97;;
74292;Laerm;62687;55.738;37.516;2023-02-26T02:37:00;70.63;61.13;79.47;;
74292;Laerm;62687;55.738;37.516;2023-02-26T02:40:01;70.42;62.13;77.63;;
74292;Laerm;62687;55.738;37.516;2023-02-26T02:43:03;70.58;61.78;75.95;;
74292;Laerm;62687;55.738;37.516;2023-02-26T02:46:14;70.76;61.74;80.99;;
74292;Laerm;62687;55.738;37.516;2023-02-26T02:49:03;70.31;62.09;74.85;;
74292;Laerm;62687;55.738;37.516;2023-02-26T02:51:52;70.60;62.21;77.55;;
74292;Laerm;62687;55.738;37.516;2023-02-26T02:54:46;71.89;65.34;82.27;;
74292;Laerm;62687;55.738;37.516;2023-02-26T02:57:39;70.30;63.25;76.33;;
74292;Laerm;62687;55.738;37.516;2023-02-26T03:00:29;70.57;61.12;79.67;;
74292;Laerm;62687;55.738;37.516;2023-02-26T03:03:33;71.29;63.79;84.26;;
74292;Laerm;62687;55.738;37.516;2023-02-26T03:06:19;68.87;60.11;76.55;;
74292;Laerm;62687;55.738;37.516;2023-02-26T03:09:05;68.46;62.66;75.54;;
74292;Laerm;62687;55.738;37.516;2023-02-26T03:11:49;70.97;64.78;77.16;;
74292;Laerm;62687;55.738;37.516;2023-02-26T03:14:33;70.80;62.80;86.16;;
74292;Laerm;62687;55.738;37.516;2023-02-26T03:25:54;70.75;63.71;80.28;;
74292;Laerm;62687;55.738;37.516;2023-02-26T03:29:08;70.08;59.22;76.51;;
74292;Laerm;62687;55.738;37.516;2023-02-26T03:32:00;69.62;63.09;75.35;;
74292;Laerm;62687;55.738;37.516;2023-02-26T03:34:52;69.92;62.94;81.38;;
74292;Laerm;62687;55.738;37.516;2023-02-26T03:37:58;70.19;64.15;76.06;;
74292;Laerm;62687;55.738;37.516;2023-02-26T03:40:52;69.50;60.10;76.37;;
74292;Laerm;62687;55.738;37.516;2023-02-26T03:43:50;69.10;63.06;76.78;;
74292;Laerm;62687;55.738;37.516;2023-02-26T03:46:45;69.53;61.36;79.49;;
74292;Laerm;62687;55.738;37.516;2023-02-26T03:49:48;70.85;63.75;77.97;;
74292;Laerm;62687;55.738;37.516;2023-02-26T03:52:37;70.16;63.39;79.80;;
74292;Laerm;62687;55.738;37.516;2023-02-26T03:55:26;70.31;65.05;76.11;;
74292;Laerm;62687;55.738;37.516;2023-02-26T03:58:13;70.05;61.43;75.60;;
74292;Laerm;62687;55.738;37.516;2023-02-26T04:01:02;70.57;62.14;77.13;;
74292;Laerm;62687;55.738;37.516;2023-02-26T04:06:38;69.79;64.22;80.85;;
74292;Laerm;62687;55.738;37.516;2023-02-26T04:09:23;69.64;64.19;75.24;;
74292;Laerm;62687;55.738;37.516;2023-02-26T04:12:07;71.44;65.33;86.34;;
74292;Laerm;62687;55.738;37.516;2023-02-26T04:14:52;70.95;66.03;79.73;;
74292;Laerm;62687;55.738;37.516;2023-02-26T04:17:36;71.38;62.77;86.19;;
74292;Laerm;62687;55.738;37.516;2023-02-26T04:20:20;70.72;64.65;78.10;;
74292;Laerm;62687;55.738;37.516;2023-02-26T04:23:04;71.04;63.45;78.14;;
74292;Laerm;62687;55.738;37.516;2023-02-26T04:25:48;71.73;65.59;81.14;;
74292;Laerm;62687;55.738;37.516;2023-02-26T04:28:32;71.28;64.33;78.52;;
74292;Laerm;62687;55.738;37.516;2023-02-26T04:31:18;71.59;66.79;86.14;;
74292;Laerm;62687;55.738;37.516;2023-02-26T04:34:02;71.93;65.92;83.23;;
74292;Laerm;62687;55.738;37.516;2023-02-26T04:36:46;72.26;65.41;78.55;;
74292;Laerm;62687;55.738;37.516;2023-02-26T04:39:30;71.49;64.83;76.75;;
74292;Laerm;62687;55.738;37.516;2023-02-26T04:42:14;70.81;65.46;77.37;;
74292;Laerm;62687;55.738;37.516;2023-02-26T04:44:58;71.35;65.35;77.42;;
74292;Laerm;62687;55.738;37.516;2023-02-26T04:47:42;69.88;60.80;80.19;;
74292;Laerm;62687;55.738;37.516;2023-02-26T04:50:26;71.20;64.81;80.23;;
74292;Laerm;62687;55.738;37.516;2023-02-26T04:53:11;71.15;64.82;77.61;;
74292;Laerm;62687;55.738;37.516;2023-02-26T04:55:55;71.26;63.80;84.98;;
74292;Laerm;62687;55.738;37.516;2023-02-26T04:58:39;71.54;64.98;76.76;;
74292;Laerm;62687;55.738;37.516;2023-02-26T05:01:23;71.72;65.61;83.07;;
74292;Laerm;62687;55.738;37.516;2023-02-26T05:04:07;71.39;64.48;77.30;;
74292;Laerm;62687;55.738;37.516;2023-02-26T05:06:52;71.33;64.33;78.90;;
74292;Laerm;62687;55.738;37.516;2023-02-26T05:09:36;71.28;66.12;78.84;;
74292;Laerm;62687;55.738;37.516;2023-02-26T05:12:20;71.23;65.62;78.35;;
74292;Laerm;62687;55.738;37.516;2023-02-26T05:15:04;72.87;67.39;78.88;;
74292;Laerm;62687;55.738;37.516;2023-02-26T05:17:49;71.82;64.08;76.02;;
74292;Laerm;62687;55.738;37.516;2023-02-26T05:20:33;71.96;66.88;79.60;;
74292;Laerm;62687;55.738;37.516;2023-02-26T05:23:17;71.55;65.64;78.61;;
74292;Laerm;62687;55.738;37.516;2023-02-26T05:26:02;72.63;66.33;82.30;;
74292;Laerm;62687;55.738;37.516;2023-02-26T05:28:46;72.80;68.07;83.48;;
74292;Laerm;62687;55.738;37.516;2023-02-26T05:31:30;72.58;67.16;77.37;;
74292;Laerm;62687;55.738;37.516;2023-02-26T05:34:14;73.01;67.30;83.78;;
74292;Laerm;62687;55.738;37.516;2023-02-26T05:36:58;72.70;67.36;80.77;;
74292;Laerm;62687;55.738;37.516;2023-02-26T05:39:42;72.71;66.71;84.00;;
74292;Laerm;62687;55.738;37.516;2023-02-26T05:42:26;72.10;67.28;76.58;;
74292;Laerm;62687;55.738;37.516;2023-02-26T05:45:10;72.89;68.10;79.55;;
74292;Laerm;62687;55.738;37.516;2023-02-26T05:47:55;73.13;68.53;78.43;;
74292;Laerm;62687;55.738;37.516;2023-02-26T05:50:39;72.32;66.65;78.36;;
74292;Laerm;62687;55.738;37.516;2023-02-26T05:53:23;72.98;68.08;77.53;;
74292;Laerm;62687;55.738;37.516;2023-02-26T05:56:07;72.32;67.00;81.80;;
74292;Laerm;62687;55.738;37.516;2023-02-26T05:58:51;72.72;67.55;78.70;;
74292;Laerm;62687;55.738;37.516;2023-02-26T06:01:35;72.42;65.99;81.83;;
74292;Laerm;62687;55.738;37.516;2023-02-26T06:04:20;72.20;65.99;78.26;;
74292;Laerm;62687;55.738;37.516;2023-02-26T06:07:04;72.05;65.54;80.83;;
74292;Laerm;62687;55.738;37.516;2023-02-26T06:09:48;72.43;64.82;79.66;;
74292;Laerm;62687;55.738;37.516;2023-02-26T06:12:32;72.24;67.47;78.80;;
74292;Laerm;62687;55.738;37.516;2023-02-26T06:15:16;73.19;65.77;78.58;;
74292;Laerm;62687;55.738;37.516;2023-02-26T06:18:00;72.92;67.23;80.09;;
74292;Laerm;62687;55.738;37.516;2023-02-26T06:20:44;73.28;66.99;78.90;;
74292;Laerm;62687;55.738;37.516;2023-02-26T06:23:28;72.96;67.80;81.10;;
74292;Laerm;62687;55.738;37.516;2023-02-26T06:26:12;73.26;68.39;78.58;;
74292;Laerm;62687;55.738;37.516;2023-02-26T06:28:56;73.02;68.71;77.48;;
74292;Laerm;62687;55.738;37.516;2023-02-26T06:31:40;72.67;66.05;76.51;;
74292;Laerm;62687;55.738;37.516;2023-02-26T06:34:24;72.80;68.69;78.87;;
74292;Laerm;62687;55.738;37.516;2023-02-26T06:37:08;73.41;67.61;79.86;;
74292;Laerm;62687;55.738;37.516;2023-02-26T06:39:52;74.00;69.91;79.06;;
74292;Laerm;62687;55.738;37.516;2023-02-26T06:42:36;73.85;69.28;77.83;;
74292;Laerm;62687;55.738;37.516;2023-02-26T06:45:20;72.87;67.81;78.50;;
74292;Laerm;62687;55.738;37.516;2023-02-26T06:48:04;73.93;68.82;83.15;;
74292;Laerm;62687;55.738;37.516;2023-02-26T06:50:48;73.56;67.70;77.63;;
74292;Laerm;62687;55.738;37.516;2023-02-26T06:53:32;73.33;68.52;77.59;;
74292;Laerm;62687;55.738;37.516;2023-02-26T06:56:16;73.31;67.03;79.47;;
74292;Laerm;62687;55.738;37.516;2023-02-26T06:59:00;73.80;69.75;78.30;;
74292;Laerm;62687;55.738;37.516;2023-02-26T07:01:45;73.69;68.90;86.58;;
74292;Laerm;62687;55.738;37.516;2023-02-26T07:04:29;73.44;68.68;80.03;;
74292;Laerm;62687;55.738;37.516;2023-02-26T07:07:14;73.16;67.57;77.76;;
74292;Laerm;62687;55.738;37.516;2023-02-26T07:09:59;73.04;69.35;77.58;;
74292;Laerm;62687;55.738;37.516;2023-02-26T07:12:43;73.05;68.23;77.17;;
74292;Laerm;62687;55.738;37.516;2023-02-26T07:15:27;73.55;68.33;79.20;;
74292;Laerm;62687;55.738;37.516;2023-02-26T07:18:12;72.90;66.98;80.08;;
74292;Laerm;62687;55.738;37.516;2023-02-26T07:20:56;73.41;67.41;78.76;;
74292;Laerm;62687;55.738;37.516;2023-02-26T07:23:40;73.38;69.12;78.59;;
74292;Laerm;62687;55.738;37.516;2023-02-26T07:26:24;73.64;69.57;80.04;;
74292;Laerm;62687;55.738;37.516;2023-02-26T07:29:08;73.69;69.86;78.82;;
74292;Laerm;62687;55.738;37.516;2023-02-26T07:31:52;73.60;70.12;78.05;;
74292;Laerm;62687;55.738;37.516;2023-02-26T07:34:36;73.98;69.80;84.11;;
74292;Laerm;62687;55.738;37.516;2023-02-26T07:37:20;74.43;68.71;84.94;;
74292;Laerm;62687;55.738;37.516;2023-02-26T07:40:05;73.88;68.12;79.07;;
74292;Laerm;62687;55.738;37.516;2023-02-26T07:42:50;73.36;68.61;78.77;;
74292;Laerm;62687;55.738;37.516;2023-02-26T07:45:34;73.70;69.23;79.12;;
74292;Laerm;62687;55.738;37.516;2023-02-26T07:48:18;73.87;69.65;87.82;;
74292;Laerm;62687;55.738;37.516;2023-02-26T07:51:02;74.59;70.15;82.60;;
74292;Laerm;62687;55.738;37.516;2023-02-26T07:53:47;74.02;68.05;78.28;;
74292;Laerm;62687;55.738;37.516;2023-02-26T07:56:30;73.53;69.54;82.99;;
74292;Laerm;62687;55.738;37.516;2023-02-26T07:59:14;74.00;69.29;80.08;;
74292;Laerm;62687;55.738;37.516;2023-02-26T08:01:59;73.82;69.52;79.38;;
74292;Laerm;62687;55.738;37.516;2023-02-26T08:04:43;73.61;69.25;81.85;;
74292;Laerm;62687;55.738;37.516;2023-02-26T08:07:27;73.76;69.66;78.05;;
74292;Laerm;62687;55.738;37.516;2023-02-26T08:10:11;73.76;70.16;78.94;;
74292;Laerm;62687;55.738;37.516;2023-02-26T08:12:55;73.97;68.58;78.18;;
74292;Laerm;62687;55.738;37.516;2023-02-26T08:15:39;74.31;70.48;77.67;;
74292;Laerm;62687;55.738;37.516;2023-02-26T08:18:26;73.46;69.82;77.64;;
74292;Laerm;62687;55.738;37.516;2023-02-26T08:21:10;73.65;70.02;77.71;;
74292;Laerm;62687;55.738;37.516;2023-02-26T08:23:55;73.84;70.01;77.33;;
74292;Laerm;62687;55.738;37.516;2023-02-26T08:26:39;73.88;69.81;77.85;;
74292;Laerm;62687;55.738;37.516;2023-02-26T08:29:23;73.77;69.02;78.04;;
74292;Laerm;62687;55.738;37.516;2023-02-26T08:32:08;73.75;68.90;79.40;;
74292;Laerm;62687;55.738;37.516;2023-02-26T08:34:52;73.52;69.37;81.25;;
74292;Laerm;62687;55.738;37.516;2023-02-26T08:37:37;73.15;68.49;79.91;;
74292;Laerm;62687;55.738;37.516;2023-02-26T08:40:22;73.54;69.05;79.67;;
74292;Laerm;62687;55.738;37.516;2023-02-26T08:43:06;73.22;68.18;79.66;;
74292;Laerm;62687;55.738;37.516;2023-02-26T08:45:55;73.36;69.01;76.95;;
74292;Laerm;62687;55.738;37.516;2023-02-26T08:48:39;73.77;69.35;86.18;;
74292;Laerm;62687;55.738;37.516;2023-02-26T08:51:23;73.82;70.43;83.13;;
74292;Laerm;62687;55.738;37.516;2023-02-26T08:54:07;73.71;69.05;85.50;;
74292;Laerm;62687;55.738;37.516;2023-02-26T08:56:52;73.70;68.29;88.80;;
74292;Laerm;62687;55.738;37.516;2023-02-26T08:59:38;72.96;68.53;83.01;;
74292;Laerm;62687;55.738;37.516;2023-02-26T09:02:22;73.25;69.35;81.06;;
74292;Laerm;62687;55.738;37.516;2023-02-26T09:05:06;73.86;69.30;79.90;;
74292;Laerm;62687;55.738;37.516;2023-02-26T09:07:51;73.20;70.07;77.30;;
74292;Laerm;62687;55.738;37.516;2023-02-26T09:10:35;73.63;69.51;79.55;;
74292;Laerm;62687;55.738;37.516;2023-02-26T09:13:18;74.12;70.98;80.92;;
74292;Laerm;62687;55.738;37.516;2023-02-26T09:16:03;74.60;70.21;78.15;;
74292;Laerm;62687;55.738;37.516;2023-02-26T09:18:47;74.15;69.97;79.82;;
74292;Laerm;62687;55.738;37.516;2023-02-26T09:21:32;74.51;70.09;86.07;;
74292;Laerm;62687;55.738;37.516;2023-02-26T09:24:16;74.94;69.08;94.09;;
74292;Laerm;62687;55.738;37.516;2023-02-26T09:27:00;74.41;70.39;82.08;;
74292;Laerm;62687;55.738;37.516;2023-02-26T09:29:46;73.95;70.37;79.20;;
74292;Laerm;62687;55.738;37.516;2023-02-26T09:32:30;74.43;68.97;78.87;;
74292;Laerm;62687;55.738;37.516;2023-02-26T09:35:14;74.24;70.07;78.60;;
74292;Laerm;62687;55.738;37.516;2023-02-26T09:37:58;74.40;70.27;81.09;;
74292;Laerm;62687;55.738;37.516;2023-02-26T09:41:05;73.82;70.03;77.90;;
74292;Laerm;62687;55.738;37.516;2023-02-26T09:44:15;74.57;70.71;78.43;;
74292;Laerm;62687;55.738;37.516;2023-02-26T09:47:23;74.75;70.13;86.41;;
74292;Laerm;62687;55.738;37.516;2023-02-26T09:50:21;74.84;69.50;83.14;;
74292;Laerm;62687;55.738;37.516;2023-02-26T09:53:17;74.69;70.09;79.26;;
74292;Laerm;62687;55.738;37.516;2023-02-26T09:56:13;74.69;70.72;80.12;;
74292;Laerm;62687;55.738;37.516;2023-02-26T09:58:59;73.88;70.55;80.02;;
74292;Laerm;62687;55.738;37.516;2023-02-26T10:07:56;73.59;69.82;78.01;;
74292;Laerm;62687;55.738;37.516;2023-02-26T10:11:01;73.56;69.63;81.27;;
74292;Laerm;62687;55.738;37.516;2023-02-26T10:13:55;73.65;69.35;77.36;;
74292;Laerm;62687;55.738;37.516;2023-02-26T10:16:44;73.72;70.15;81.95;;
74292;Laerm;62687;55.738;37.516;2023-02-26T10:19:33;73.29;68.50;79.52;;
74292;Laerm;62687;55.738;37.516;2023-02-26T10:22:33;73.23;68.75;77.19;;
74292;Laerm;62687;55.738;37.516;2023-02-26T10:25:28;73.60;68.11;78.08;;
74292;Laerm;62687;55.738;37.516;2023-02-26T10:31:31;73.59;70.00;78.20;;
74292;Laerm;62687;55.738;37.516;2023-02-26T10:34:34;73.63;69.61;78.17;;
74292;Laerm;62687;55.738;37.516;2023-02-26T10:40:48;73.83;70.22;81.00;;
74292;Laerm;62687;55.738;37.516;2023-02-26T10:43:38;74.06;70.40;79.76;;
74292;Laerm;62687;55.738;37.516;2023-02-26T10:46:40;73.69;70.04;82.09;;
74292;Laerm;62687;55.738;37.516;2023-02-26T10:52:17;73.56;69.56;77.11;;
74292;Laerm;62687;55.738;37.516;2023-02-26T10:55:32;73.53;69.71;81.76;;
74292;Laerm;62687;55.738;37.516;2023-02-26T10:58:23;73.63;68.34;78.32;;
74292;Laerm;62687;55.738;37.516;2023-02-26T11:01:17;73.71;69.45;80.81;;
74292;Laerm;62687;55.738;37.516;2023-02-26T11:04:28;73.60;70.15;79.16;;
74292;Laerm;62687;55.738;37.516;2023-02-26T11:07:12;74.04;69.69;77.74;;
74292;Laerm;62687;55.738;37.516;2023-02-26T11:09:58;73.90;69.05;79.14;;
74292;Laerm;62687;55.738;37.516;2023-02-26T11:12:42;74.09;70.03;80.68;;
74292;Laerm;62687;55.738;37.516;2023-02-26T11:15:26;74.02;69.56;78.43;;
74292;Laerm;62687;55.738;37.516;2023-02-26T11:18:14;73.66;69.00;78.34;;
74292;Laerm;62687;55.738;37.516;2023-02-26T11:21:03;73.68;70.19;85.65;;
74292;Laerm;62687;55.738;37.516;2023-02-26T11:23:49;73.97;69.40;82.75;;
74292;Laerm;62687;55.738;37.516;2023-02-26T11:26:37;74.08;70.07;79.67;;
74292;Laerm;62687;55.738;37.516;2023-02-26T11:29:21;73.44;69.21;84.56;;
74292;Laerm;62687;55.738;37.516;2023-02-26T11:32:29;72.96;69.13;83.01;;
74292;Laerm;62687;55.738;37.516;2023-02-26T11:35:14;72.69;67.70;77.98;;
74292;Laerm;62687;55.738;37.516;2023-02-26T11:38:01;73.27;69.32;79.47;;
74292;Laerm;62687;55.738;37.516;2023-02-26T11:40:48;73.78;69.32;83.71;;
74292;Laerm;62687;55.738;37.516;2023-02-26T11:43:39;73.52;69.67;82.69;;
74292;Laerm;62687;55.738;37.516;2023-02-26T11:46:25;72.53;67.92;94.84;;
74292;Laerm;62687;55.738;37.516;2023-02-26T11:49:13;72.65;68.36;76.50;;
74292;Laerm;62687;55.738;37.516;2023-02-26T11:55:25;73.01;67.80;81.76;;
74292;Laerm;62687;55.738;37.516;2023-02-26T11:58:19;73.20;68.30;78.68;;
74292;Laerm;62687;55.738;37.516;2023-02-26T12:01:07;73.79;69.53;83.70;;
74292;Laerm;62687;55.738;37.516;2023-02-26T12:03:51;73.81;69.42;78.28;;
74292;Laerm;62687;55.738;37.516;2023-02-26T12:06:35;73.01;69.23;76.62;;
74292;Laerm;62687;55.738;37.516;2023-02-26T12:09:20;73.97;69.72;79.09;;
74292;Laerm;62687;55.738;37.516;2023-02-26T12:12:23;73.44;69.87;77.26;;
74292;Laerm;62687;55.738;37.516;2023-02-26T12:27:42;73.82;70.08;77.45;;
74292;Laerm;62687;55.738;37.516;2023-02-26T12:34:13;78.57;70.23;99.10;;
74292;Laerm;62687;55.738;37.516;2023-02-26T12:43:38;74.38;70.67;80.65;;
74292;Laerm;62687;55.738;37.516;2023-02-26T12:56:20;74.11;70.46;78.27;;
74292;Laerm;62687;55.738;37.516;2023-02-26T13:08:24;76.15;69.75;98.24;;
74292;Laerm;62687;55.738;37.516;2023-02-26T13:11:41;76.64;69.76;99.17;;
74292;Laerm;62687;55.738;37.516;2023-02-26T13:20:02;75.48;69.32;99.65;;
74292;Laerm;62687;55.738;37.516;2023-02-26T13:22:58;77.13;69.86;98.56;;
74292;Laerm;62687;55.738;37.516;2023-02-26T13:25:47;75.18;70.11;92.41;;
74292;Laerm;62687;55.738;37.516;2023-02-26T13:28:42;74.23;69.08;92.50;;
74292;Laerm;62687;55.738;37.516;2023-02-26T13:31:37;73.92;68.64;90.83;;
74292;Laerm;62687;55.738;37.516;2023-02-26T13:34:41;75.38;68.93;97.26;;
74292;Laerm;62687;55.738;37.516;2023-02-26T13:37:28;73.96;69.99;86.64;;
74292;Laerm;62687;55.738;37.516;2023-02-26T13:46:46;74.17;69.75;92.13;;
74292;Laerm;62687;55.738;37.516;2023-02-26T13:50:01;74.42;69.36;93.27;;
74292;Laerm;62687;55.738;37.516;2023-02-26T13:52:53;73.90;69.92;85.73;;
74292;Laerm;62687;55.738;37.516;2023-02-26T13:55:46;73.75;68.88;84.28;;
74292;Laerm;62687;55.738;37.516;2023-02-26T13:58:38;74.15;70.57;89.45;;
74292;Laerm;62687;55.738;37.516;2023-02-26T14:01:31;73.86;70.58;84.89;;
74292;Laerm;62687;55.738;37.516;2023-02-26T14:07:15;74.12;70.21;84.31;;
74292;Laerm;62687;55.738;37.516;2023-02-26T14:10:02;74.00;69.47;90.84;;
74292;Laerm;62687;55.738;37.516;2023-02-26T14:13:02;73.32;69.09;90.50;;
74292;Laerm;62687;55.738;37.516;2023-02-26T14:24:21;74.01;70.49;85.06;;
74292;Laerm;62687;55.738;37.516;2023-02-26T14:30:27;74.22;70.46;83.36;;
74292;Laerm;62687;55.738;37.516;2023-02-26T14:33:17;73.98;69.74;84.74;;
74292;Laerm;62687;55.738;37.516;2023-02-26T14:36:05;73.80;69.13;82.84;;
74292;Laerm;62687;55.738;37.516;2023-02-26T14:38:57;74.06;68.93;92.72;;
74292;Laerm;62687;55.738;37.516;2023-02-26T14:41:45;74.21;69.57;89.51;;
74292;Laerm;62687;55.738;37.516;2023-02-26T14:44:40;74.14;69.83;91.75;;
74292;Laerm;62687;55.738;37.516;2023-02-26T14:47:25;74.71;70.42;90.11;;
74292;Laerm;62687;55.738;37.516;2023-02-26T14:50:18;73.66;69.87;78.02;;
74292;Laerm;62687;55.738;37.516;2023-02-26T14:53:23;73.48;70.03;79.29;;
74292;Laerm;62687;55.738;37.516;2023-02-26T15:02:29;75.34;69.68;90.94;;
74292;Laerm;62687;55.738;37.516;2023-02-26T15:08:23;73.63;68.24;83.32;;
74292;Laerm;62687;55.738;37.516;2023-02-26T15:17:27;73.65;69.88;87.68;;
74292;Laerm;62687;55.738;37.516;2023-02-26T15:23:20;73.32;69.99;78.30;;
74292;Laerm;62687;55.738;37.516;2023-02-26T15:26:17;73.53;69.27;77.34;;
74292;Laerm;62687;55.738;37.516;2023-02-26T15:29:06;73.30;68.92;77.32;;
74292;Laerm;62687;55.738;37.516;2023-02-26T15:31:56;73.42;69.29;78.69;;
74292;Laerm;62687;55.738;37.516;2023-02-26T15:34:48;73.58;69.33;78.10;;
74292;Laerm;62687;55.738;37.516;2023-02-26T15:37:38;73.49;69.85;84.23;;
74292;Laerm;62687;55.738;37.516;2023-02-26T15:40:27;73.97;69.47;85.97;;
74292;Laerm;62687;55.738;37.516;2023-02-26T15:43:20;73.01;68.63;77.16;;
74292;Laerm;62687;55.738;37.516;2023-02-26T15:46:08;73.34;68.12;91.73;;
74292;Laerm;62687;55.738;37.516;2023-02-26T15:48:57;72.66;68.72;83.91;;
74292;Laerm;62687;55.738;37.516;2023-02-26T15:51:43;72.84;68.46;79.42;;
74292;Laerm;62687;55.738;37.516;2023-02-26T15:54:40;72.46;68.04;76.39;;
74292;Laerm;62687;55.738;37.516;2023-02-26T15:57:26;73.00;68.85;81.23;;
74292;Laerm;62687;55.738;37.516;2023-02-26T16:00:16;72.27;67.39;76.03;;
74292;Laerm;62687;55.738;37.516;2023-02-26T16:03:00;72.52;67.70;76.99;;
74292;Laerm;62687;55.738;37.516;2023-02-26T16:05:47;72.75;69.17;78.39;;
74292;Laerm;62687;55.738;37.516;2023-02-26T16:08:31;72.66;68.88;76.90;;
74292;Laerm;62687;55.738;37.516;2023-02-26T16:11:16;72.79;67.96;81.12;;
74292;Laerm;62687;55.738;37.516;2023-02-26T16:14:02;73.01;68.74;77.58;;
74292;Laerm;62687;55.738;37.516;2023-02-26T16:16:50;73.54;68.20;91.55;;
74292;Laerm;62687;55.738;37.516;2023-02-26T16:19:39;72.76;67.87;80.93;;
74292;Laerm;62687;55.738;37.516;2023-02-26T16:22:37;72.91;69.10;76.42;;
74292;Laerm;62687;55.738;37.516;2023-02-26T16:28:33;73.29;69.18;79.88;;
74292;Laerm;62687;55.738;37.516;2023-02-26T16:31:22;72.79;68.11;76.81;;
74292;Laerm;62687;55.738;37.516;2023-02-26T16:34:41;72.54;68.53;79.91;;
74292;Laerm;62687;55.738;37.516;2023-02-26T16:40:24;72.95;68.43;87.48;;
74292;Laerm;62687;55.738;37.516;2023-02-26T16:46:05;72.56;67.46;89.69;;
74292;Laerm;62687;55.738;37.516;2023-02-26T16:49:06;72.82;68.56;81.44;;
74292;Laerm;62687;55.738;37.516;2023-02-26T16:51:53;72.03;66.98;91.04;;
74292;Laerm;62687;55.738;37.516;2023-02-26T16:54:40;71.16;66.57;83.68;;
74292;Laerm;62687;55.738;37.516;2023-02-26T16:57:35;70.19;66.04;75.64;;
74292;Laerm;62687;55.738;37.516;2023-02-26T17:00:24;69.12;64.16;78.03;;
74292;Laerm;62687;55.738;37.516;2023-02-26T17:03:17;71.47;66.15;97.08;;
74292;Laerm;62687;55.738;37.516;2023-02-26T17:06:06;70.41;64.61;87.65;;
74292;Laerm;62687;55.738;37.516;2023-02-26T17:08:56;70.06;65.73;75.27;;
74292;Laerm;62687;55.738;37.516;2023-02-26T17:11:42;71.10;65.59;90.40;;
74292;Laerm;62687;55.738;37.516;2023-02-26T17:14:30;69.87;65.95;81.75;;
74292;Laerm;62687;55.738;37.516;2023-02-26T17:17:20;69.65;65.49;82.27;;
74292;Laerm;62687;55.738;37.516;2023-02-26T17:20:04;68.94;64.70;82.62;;
74292;Laerm;62687;55.738;37.516;2023-02-26T17:22:49;69.20;64.97;81.90;;
74292;Laerm;62687;55.738;37.516;2023-02-26T17:25:37;69.80;64.89;82.00;;
74292;Laerm;62687;55.738;37.516;2023-02-26T17:28:25;69.77;64.42;85.94;;
74292;Laerm;62687;55.738;37.516;2023-02-26T17:31:10;69.85;64.86;86.11;;
74292;Laerm;62687;55.738;37.516;2023-02-26T17:33:55;68.30;62.59;78.62;;
74292;Laerm;62687;55.738;37.516;2023-02-26T17:36:39;68.09;64.17;72.88;;
74292;Laerm;62687;55.738;37.516;2023-02-26T17:39:24;68.83;64.42;75.72;;
74292;Laerm;62687;55.738;37.516;2023-02-26T17:42:13;68.87;63.74;78.32;;
74292;Laerm;62687;55.738;37.516;2023-02-26T17:44:58;70.27;65.68;80.81;;
74292;Laerm;62687;55.738;37.516;2023-02-26T17:47:43;71.21;65.64;79.94;;
74292;Laerm;62687;55.738;37.516;2023-02-26T17:53:23;77.87;65.52;104.52;;
74292;Laerm;62687;55.738;37.516;2023-02-26T17:56:23;72.61;66.17;89.01;;
74292;Laerm;62687;55.738;37.516;2023-02-26T17:59:09;71.43;66.89;80.05;;
74292;Laerm;62687;55.738;37.516;2023-02-26T18:01:54;71.50;66.75;78.68;;
74292;Laerm;62687;55.738;37.516;2023-02-26T18:04:38;71.59;66.96;79.80;;
74292;Laerm;62687;55.738;37.516;2023-02-26T18:07:23;72.56;66.39;90.90;;